createdAt,value
2017-02-20T13:42:09.490Z,987.23
2017-02-20T13:42:40.292Z,987.23
2017-02-20T13:43:11.072Z,987.22
2017-02-20T13:43:41.877Z,987.2
2017-02-20T13:44:12.717Z,987.21
2017-02-20T13:44:43.571Z,987.18
2017-02-20T13:45:14.450Z,987.21
2017-02-20T13:45:45.292Z,987.2
2017-02-20T13:46:16.058Z,987.21
2017-02-20T13:46:46.870Z,987.2
2017-02-20T13:47:17.677Z,987.18
2017-02-20T13:47:49.250Z,987.2
2017-02-20T13:48:20.070Z,987.19
2017-02-20T13:48:50.847Z,987.15
2017-02-20T13:49:21.737Z,987.19
2017-02-20T13:49:52.557Z,987.16
2017-02-20T13:50:23.382Z,987.15
2017-02-20T13:50:54.212Z,987.15
2017-02-20T13:51:25.232Z,987.14
2017-02-20T13:51:56.007Z,987.16
2017-02-20T13:52:26.832Z,987.12
2017-02-20T13:52:57.670Z,987.11
2017-02-20T13:53:28.532Z,987.1
2017-02-20T13:53:59.332Z,987.14
2017-02-20T13:54:30.132Z,987.08
2017-02-20T13:55:00.957Z,987.09
2017-02-20T13:55:31.707Z,987.11
2017-02-20T13:56:02.497Z,987.07
2017-02-20T13:56:33.322Z,987.06
2017-02-20T13:57:04.212Z,987.06
2017-02-20T13:57:35.017Z,987.08
2017-02-20T13:58:05.787Z,987.06
2017-02-20T13:58:36.517Z,987.04
2017-02-20T13:59:07.317Z,987.03
2017-02-20T13:59:38.110Z,987.02
2017-02-20T14:00:08.931Z,987.07
2017-02-20T14:00:39.750Z,987.01
2017-02-20T14:01:10.577Z,987.05
2017-02-20T14:01:41.603Z,987
2017-02-20T14:02:12.772Z,987
2017-02-20T14:02:43.593Z,987
2017-02-20T14:03:14.399Z,987
2017-02-20T14:03:45.167Z,987
2017-02-20T14:04:16.037Z,986.97
2017-02-20T14:04:46.902Z,986.98
2017-02-20T14:05:17.688Z,986.98
2017-02-20T14:05:48.452Z,986.97
2017-02-20T14:06:19.290Z,986.98
2017-02-20T14:06:50.122Z,986.94
2017-02-20T14:07:20.897Z,986.96
2017-02-20T14:07:51.717Z,986.94
2017-02-20T14:08:22.550Z,986.89
2017-02-20T14:08:53.529Z,986.91
2017-02-20T14:09:24.343Z,986.88
2017-02-20T14:09:55.150Z,986.88
2017-02-20T14:10:26.082Z,986.89
2017-02-20T14:10:56.847Z,986.89
2017-02-20T14:11:27.612Z,986.87
2017-02-20T14:11:58.442Z,986.84
2017-02-20T14:12:29.252Z,986.82
2017-02-20T14:13:00.067Z,986.8
